Andover, SD

11:20 AM CDT on October 01, 2014 (GMT -0500)
KSDGROTO1 | Change Station
CLOSE
Current Station
Personal Weather Station
Location: Groton, SD
Elevation: 1295 ft
Nearby Weather Stations

Elev 1295 ft 45.45 °N, 98.10 °W | Updated 14 minutes ago

Clear
Clear
63.4 °F
Feels Like 63.4 °F
N
2.0
Wind Variable Wind from WNW
Gusts 12.0 mph

Today
High -- | Low -- °F
--% Chance of Precip.
Yesterday
High -- | Low -- °F
Precip. -- in
7:29 AM 7:11 PM
Waxing Crescent, 49% visible
Pressure 29.71 in
Visibility 10.0 miles
Clouds Clear
Dew Point 55 °F
Humidity 75%
Rainfall 0.00 in
Snow Depth 0 in , 1 in
UV 3 out of 12
Pollen 2.50 out of 12
Air Quality Not available.
Flu Activity Not available.
METAR KABR 011553Z AUTO 28006KT 10SM CLR 17/11 A2972 RMK AO2 SLP060 T01720111

More Conditions Fewer Conditions

Pressure 29.71 in
Visibility 10.0 miles
Clouds Clear
Dew Point 55 °F
Humidity 75%
Rainfall 0.00 in
Snow Depth 0 in , 1 in
UV 3 out of 12
Pollen 2.50 out of 12
Air Quality Not available.
Flu Activity Not available.
METAR KABR 011553Z AUTO 28006KT 10SM CLR 17/11 A2972 RMK AO2 SLP060 T01720111

More Conditions Fewer Conditions

10-Day Weather Forecast

Almanac

Astronomy

Oct. 01, 2014 Rise Set
Actual Time 7:29 AM CDT 7:11 PM CDT
Civil Twilight 7:00 AM CDT 7:41 PM CDT
Nautical Twilight 6:26 AM CDT 8:15 PM CDT
Astronomical Twilight 5:51 AM CDT 8:50 PM CDT
Moon 2:44 PM CDT No Moon Set
Length of Visible Light 12h 40m
Length of Day
11h 41m
Tomorrow will be 3m 10s shorter.
Waxing Crescent, 49% of the Moon is Illuminated
Today
Waxing Crescent
Oct 1
First Quarter
Oct 8
Full
Oct 15
Last Quarter
Oct 23
New

Today's Extremes

State Highs State Lows

Community

WunderPhotos

Upload Photos

1,757,980 photos uploaded!

WunderBlogs® & News

Nearby

Snow Depth

Station Depth Elevation
North Rapid Creek 0 in 6130 ft
Blind Park 1 in 6890 ft

Earthquake Activity

City Distance Mag. Time & Date
No recent earthquake activity has been reported nearby.
Minimum magnitude displayed is 2.5.

Coastal Water Temperatures

Place Temperature
No Stations Reporting

Nearby Weather Stations